createdAt,value
2022-12-13T00:04:27.064Z,-1.68
2022-12-13T00:09:29.404Z,-1.70
2022-12-13T00:14:32.911Z,-1.68
2022-12-13T00:19:34.983Z,-1.75
2022-12-13T00:24:41.415Z,-1.77
2022-12-13T00:29:48.552Z,-1.84
2022-12-13T00:34:50.460Z,-1.80
2022-12-13T00:39:52.248Z,-1.83
2022-12-13T00:44:55.682Z,-1.86
2022-12-13T00:49:58.759Z,-1.86
2022-12-13T00:55:00.838Z,-1.89
2022-12-13T01:00:05.885Z,-1.89
2022-12-13T01:05:08.907Z,-2.03
2022-12-13T01:10:12.506Z,-1.86
2022-12-13T01:15:16.288Z,-1.91
2022-12-13T01:20:18.804Z,-1.92
2022-12-13T01:25:21.583Z,-1.99
2022-12-13T01:30:25.875Z,-2.07
2022-12-13T01:35:27.915Z,-2.04
2022-12-13T01:40:29.594Z,-2.06
2022-12-13T01:45:34.038Z,-2.07
2022-12-13T01:50:39.457Z,-2.09
2022-12-13T01:55:45.438Z,-2.04
2022-12-13T02:00:49.819Z,-2.06
2022-12-13T02:06:00.367Z,-2.09
2022-12-13T02:11:03.595Z,-2.15
2022-12-13T02:16:12.932Z,-2.14
2022-12-13T02:21:34.876Z,-2.21
2022-12-13T02:27:00.782Z,-2.19
2022-12-13T02:32:13.255Z,-2.20
2022-12-13T02:37:22.952Z,-2.21
2022-12-13T02:42:29.973Z,-2.19
2022-12-13T02:47:35.938Z,-2.15
2022-12-13T02:52:40.613Z,-2.21
2022-12-13T02:57:44.696Z,-2.20
2022-12-13T03:03:02.292Z,-2.13
2022-12-13T03:08:19.370Z,-2.11
2022-12-13T03:13:29.163Z,-2.07
2022-12-13T03:18:34.542Z,-2.12
2022-12-13T03:23:37.507Z,-2.18
2022-12-13T03:28:40.685Z,-2.26
2022-12-13T03:33:44.524Z,-2.23
2022-12-13T03:38:48.040Z,-2.22
2022-12-13T03:43:50.588Z,-2.25
2022-12-13T03:48:54.008Z,-2.25
2022-12-13T03:53:58.077Z,-2.25
2022-12-13T03:59:00.174Z,-2.20
2022-12-13T04:04:03.682Z,-2.18
2022-12-13T04:09:05.960Z,-2.25
2022-12-13T04:14:07.838Z,-2.22
2022-12-13T04:19:11.364Z,-2.27
2022-12-13T04:24:13.351Z,-2.19
2022-12-13T04:29:15.584Z,-2.20
2022-12-13T04:34:19.192Z,-2.23
2022-12-13T04:39:22.607Z,-2.22
2022-12-13T04:44:27.619Z,-2.24
2022-12-13T04:49:33.755Z,-2.29
2022-12-13T04:54:37.111Z,-2.25
2022-12-13T04:59:39.785Z,-2.31
2022-12-13T05:04:44.632Z,-2.33
2022-12-13T05:09:46.802Z,-2.31
2022-12-13T05:14:49.049Z,-2.29
2022-12-13T05:19:52.587Z,-2.32
2022-12-13T05:24:54.747Z,-2.41
2022-12-13T05:30:03.051Z,-2.41
2022-12-13T05:35:08.378Z,-2.39
2022-12-13T05:40:10.625Z,-2.44
2022-12-13T05:45:13.161Z,-2.46
2022-12-13T05:50:17.865Z,-2.43
2022-12-13T05:55:20.430Z,-2.43
2022-12-13T06:00:28.300Z,-2.40
2022-12-13T06:05:34.221Z,-2.44
2022-12-13T06:10:36.768Z,-2.50
2022-12-13T06:15:44.477Z,-2.48
2022-12-13T06:20:56.288Z,-2.52
2022-12-13T06:25:58.706Z,-2.48
2022-12-13T06:31:01.495Z,-2.51
2022-12-13T06:36:05.409Z,-2.56
2022-12-13T06:41:10.054Z,-2.59
2022-12-13T06:46:13.036Z,-2.55
2022-12-13T06:51:22.556Z,-2.59
2022-12-13T06:56:25.270Z,-2.59
2022-12-13T07:01:27.533Z,-2.61
2022-12-13T07:06:41.144Z,-2.65
2022-12-13T07:11:47.081Z,-2.53
2022-12-13T07:17:01.163Z,-2.49
2022-12-13T07:22:06.993Z,-2.52
2022-12-13T07:27:09.094Z,-2.54
2022-12-13T07:32:12.167Z,-2.50
2022-12-13T07:37:30.113Z,-2.40
2022-12-13T07:42:33.088Z,-2.46
2022-12-13T07:47:35.394Z,-2.48
2022-12-13T07:52:39.084Z,-2.37
2022-12-13T07:57:40.868Z,-2.39
2022-12-13T08:02:43.023Z,-2.44
2022-12-13T08:07:46.400Z,-2.31
2022-12-13T08:12:48.587Z,-2.35
2022-12-13T08:17:50.992Z,-2.35
2022-12-13T08:23:01.822Z,-2.38
2022-12-13T08:28:05.203Z,-2.28
2022-12-13T08:33:07.721Z,-2.27
2022-12-13T08:38:11.696Z,-2.13
2022-12-13T08:43:13.914Z,-2.11
2022-12-13T08:48:16.041Z,-2.16
2022-12-13T08:53:28.215Z,-2.01
2022-12-13T08:58:32.366Z,-1.92
2022-12-13T09:03:34.996Z,-1.69
2022-12-13T09:08:39.403Z,-1.71
2022-12-13T09:13:43.797Z,-1.73
2022-12-13T09:18:55.191Z,-1.74
2022-12-13T09:24:01.350Z,-1.76
2022-12-13T09:29:11.214Z,-1.65
2022-12-13T09:34:14.010Z,-1.70
2022-12-13T09:39:17.889Z,-1.35
2022-12-13T09:44:32.584Z,-1.27
2022-12-13T09:49:52.343Z,-1.26
2022-12-13T09:54:59.275Z,-1.33
2022-12-13T10:00:06.318Z,-1.19
2022-12-13T10:05:22.296Z,-1.17
2022-12-13T10:10:27.762Z,-1.20
2022-12-13T10:15:33.482Z,-1.23
2022-12-13T10:20:36.477Z,-1.12
2022-12-13T10:25:51.068Z,-0.96
2022-12-13T10:30:54.192Z,-0.86
2022-12-13T10:36:05.973Z,-0.83
2022-12-13T10:41:31.429Z,-0.92
2022-12-13T10:46:38.719Z,-0.83
2022-12-13T10:51:41.116Z,-0.56
2022-12-13T10:56:47.252Z,-0.57
2022-12-13T11:01:49.040Z,-0.42
2022-12-13T11:06:54.147Z,-0.60
2022-12-13T11:12:01.115Z,-0.40
2022-12-13T11:17:09.493Z,-0.42
2022-12-13T11:22:21.125Z,-0.48
2022-12-13T11:27:44.169Z,-0.60
2022-12-13T11:32:59.892Z,-0.62
2022-12-13T11:38:11.389Z,-0.36
2022-12-13T11:43:26.497Z,-0.34
2022-12-13T11:48:41.122Z,-0.12
2022-12-13T11:53:52.820Z,-0.25
2022-12-13T11:59:11.311Z,-0.17
2022-12-13T12:04:29.972Z,-0.45
2022-12-13T12:09:35.058Z,-0.29
2022-12-13T12:14:43.498Z,-0.08
2022-12-13T12:19:51.303Z,0.03
2022-12-13T12:25:03.505Z,-0.08
2022-12-13T12:30:23.798Z,-0.23
2022-12-13T12:35:46.383Z,-0.20
2022-12-13T12:41:17.507Z,-0.30
2022-12-13T12:47:09.150Z,-0.29
2022-12-13T12:52:14.486Z,-0.40
2022-12-13T12:57:24.786Z,-0.39
2022-12-13T13:02:36.811Z,-0.34
2022-12-13T13:07:43.560Z,-0.30
2022-12-13T13:13:11.473Z,-0.27
2022-12-13T13:18:49.194Z,-0.18
2022-12-13T13:24:06.557Z,-0.21
2022-12-13T13:29:37.507Z,-0.03
2022-12-13T13:34:42.932Z,0.13
2022-12-13T13:39:59.681Z,0.33
2022-12-13T13:45:20.921Z,0.29
2022-12-13T13:50:53.298Z,0.09
2022-12-13T13:56:02.000Z,-0.22
2022-12-13T14:01:48.871Z,-0.34
2022-12-13T14:07:26.445Z,-0.36
2022-12-13T14:13:14.505Z,-0.39
2022-12-13T14:18:51.779Z,-0.44
2022-12-13T14:24:12.124Z,-0.35
2022-12-13T14:29:16.895Z,-0.28
2022-12-13T14:34:22.808Z,-0.54
2022-12-13T14:39:26.640Z,-0.82
2022-12-13T14:44:30.209Z,-1.13
2022-12-13T14:49:35.260Z,-1.43
2022-12-13T14:54:45.593Z,-1.68
2022-12-13T14:59:50.603Z,-1.88
2022-12-13T15:04:53.992Z,-2.18
2022-12-13T15:10:00.667Z,-2.42
2022-12-13T15:15:06.042Z,-2.54
2022-12-13T15:20:23.362Z,-2.60
2022-12-13T15:25:27.784Z,-2.79
2022-12-13T15:30:34.022Z,-2.96
2022-12-13T15:35:36.832Z,-3.24
2022-12-13T15:40:44.045Z,-3.30
2022-12-13T15:45:48.001Z,-3.52
2022-12-13T15:50:50.355Z,-3.55
2022-12-13T15:55:53.924Z,-3.74
2022-12-13T16:00:56.148Z,-3.83
2022-12-13T16:05:58.314Z,-3.79
2022-12-13T16:11:02.307Z,-3.89
2022-12-13T16:16:26.675Z,-4.02
2022-12-13T16:21:29.979Z,-4.16
2022-12-13T16:26:34.634Z,-4.32
2022-12-13T16:31:37.220Z,-4.33
2022-12-13T16:36:40.115Z,-4.45
2022-12-13T16:41:47.009Z,-4.52
2022-12-13T16:47:11.503Z,-4.50
2022-12-13T16:52:11.433Z,-4.52
2022-12-13T16:57:14.606Z,-4.65
2022-12-13T17:02:17.758Z,-4.83
2022-12-13T17:07:19.737Z,-4.91
2022-12-13T17:12:24.574Z,-5.12
2022-12-13T17:17:26.698Z,-5.18
2022-12-13T17:22:28.503Z,-5.19
2022-12-13T17:27:31.828Z,-5.21
2022-12-13T17:32:33.881Z,-5.25
2022-12-13T17:37:35.943Z,-5.27
2022-12-13T17:42:39.044Z,-5.23
2022-12-13T17:47:40.794Z,-5.41
2022-12-13T17:52:42.648Z,-5.62
2022-12-13T17:57:46.201Z,-5.58
2022-12-13T18:02:55.119Z,-5.57
2022-12-13T18:07:58.005Z,-5.56
2022-12-13T18:13:01.187Z,-5.41
2022-12-13T18:18:11.376Z,-5.38
2022-12-13T18:23:14.679Z,-5.47
2022-12-13T18:28:18.215Z,-5.63
2022-12-13T18:33:20.892Z,-5.71
2022-12-13T18:38:23.391Z,-5.79
2022-12-13T18:43:27.088Z,-5.87
2022-12-13T18:48:29.380Z,-5.87
2022-12-13T18:53:32.288Z,-5.78
2022-12-13T18:58:36.226Z,-5.88
2022-12-13T19:03:39.109Z,-5.87
2022-12-13T19:08:40.925Z,-5.92
2022-12-13T19:13:45.081Z,-6.00
2022-12-13T19:18:47.835Z,-6.06
2022-12-13T19:23:56.923Z,-6.13
2022-12-13T19:29:02.079Z,-6.19
2022-12-13T19:34:04.437Z,-6.28
2022-12-13T19:39:06.675Z,-6.33
2022-12-13T19:44:11.353Z,-6.37
2022-12-13T19:49:13.896Z,-6.40
2022-12-13T19:54:16.165Z,-6.43
2022-12-13T19:59:19.959Z,-6.50
2022-12-13T20:04:23.454Z,-6.62
2022-12-13T20:09:26.006Z,-6.68
2022-12-13T20:14:30.018Z,-6.70
2022-12-13T20:19:32.257Z,-6.73
2022-12-13T20:24:34.689Z,-6.89
2022-12-13T20:29:38.483Z,-7.01
2022-12-13T20:34:40.891Z,-7.07
2022-12-13T20:39:43.193Z,-7.21
2022-12-13T20:44:46.525Z,-7.25
2022-12-13T20:49:48.942Z,-7.33
2022-12-13T20:54:51.408Z,-7.51
2022-12-13T20:59:54.671Z,-7.49
2022-12-13T21:04:57.878Z,-7.74
2022-12-13T21:10:03.689Z,-7.76
2022-12-13T21:15:08.415Z,-7.98
2022-12-13T21:20:10.440Z,-8.04
2022-12-13T21:25:12.464Z,-7.99
2022-12-13T21:30:15.680Z,-8.15
2022-12-13T21:35:17.696Z,-8.09
2022-12-13T21:40:19.882Z,-8.09
2022-12-13T21:45:23.699Z,-8.22
2022-12-13T21:50:25.532Z,-8.37
2022-12-13T21:55:38.933Z,-8.48
2022-12-13T22:00:43.111Z,-8.40
2022-12-13T22:05:45.284Z,-8.61
2022-12-13T22:10:46.993Z,-8.63
2022-12-13T22:15:51.149Z,-8.71
2022-12-13T22:20:56.475Z,-8.64
2022-12-13T22:25:58.577Z,-8.68
2022-12-13T22:31:02.280Z,-8.76
2022-12-13T22:36:04.734Z,-8.81
2022-12-13T22:41:06.978Z,-8.89
2022-12-13T22:46:12.847Z,-8.95
2022-12-13T22:51:17.081Z,-8.89
2022-12-13T22:56:21.317Z,-8.96
2022-12-13T23:01:28.900Z,-9.02
2022-12-13T23:06:34.137Z,-9.08
2022-12-13T23:11:36.532Z,-9.15
2022-12-13T23:16:40.634Z,-9.13
2022-12-13T23:21:43.306Z,-9.13
2022-12-13T23:26:50.730Z,-9.22
2022-12-13T23:31:54.252Z,-9.32
2022-12-13T23:36:56.548Z,-9.46
2022-12-13T23:41:58.618Z,-9.37
2022-12-13T23:47:02.080Z,-9.48
2022-12-13T23:52:04.384Z,-9.62
2022-12-13T23:57:06.380Z,-9.59
